createdAt,value
2022-08-10T00:02:25.786Z,27.20
2022-08-10T00:05:01.763Z,27.30
2022-08-10T00:07:31.604Z,27.30
2022-08-10T00:09:59.010Z,27.40
2022-08-10T00:12:54.498Z,27.30
2022-08-10T00:15:44.049Z,27.30
2022-08-10T00:18:35.087Z,27.30
2022-08-10T00:21:01.627Z,27.40
2022-08-10T00:23:29.133Z,27.30
2022-08-10T00:25:56.425Z,27.30
2022-08-10T00:28:23.753Z,27.30
2022-08-10T00:30:51.073Z,27.30
2022-08-10T00:33:18.551Z,27.30
2022-08-10T00:35:45.967Z,27.30
2022-08-10T00:38:13.306Z,27.30
2022-08-10T00:40:40.730Z,27.20
2022-08-10T00:43:08.449Z,27.20
2022-08-10T00:45:36.455Z,27.20
2022-08-10T00:48:04.492Z,27.20
2022-08-10T00:50:31.915Z,27.20
2022-08-10T00:52:59.660Z,27.20
2022-08-10T00:55:27.676Z,27.20
2022-08-10T00:57:56.437Z,27.20
2022-08-10T01:00:24.970Z,27.10
2022-08-10T01:02:53.213Z,27.10
2022-08-10T01:05:27.093Z,27.00
2022-08-10T01:08:38.549Z,26.90
2022-08-10T01:12:31.387Z,27.00
2022-08-10T01:14:52.788Z,27.00
2022-08-10T01:17:50.454Z,27.00
2022-08-10T01:20:30.285Z,26.90
2022-08-10T01:23:31.134Z,26.90
2022-08-10T01:26:30.721Z,26.90
2022-08-10T01:29:48.118Z,26.90
2022-08-10T01:32:45.070Z,26.90
2022-08-10T01:35:38.111Z,26.90
2022-08-10T01:38:23.661Z,26.90
2022-08-10T01:40:58.767Z,26.80
2022-08-10T01:43:50.813Z,26.80
2022-08-10T01:46:22.487Z,26.80
2022-08-10T01:48:53.419Z,26.80
2022-08-10T01:51:41.366Z,26.80
2022-08-10T01:54:14.152Z,26.70
2022-08-10T01:56:44.506Z,26.70
2022-08-10T01:59:22.069Z,26.70
2022-08-10T02:01:56.677Z,26.70
2022-08-10T02:04:27.699Z,26.70
2022-08-10T02:06:56.804Z,26.70
2022-08-10T02:09:27.620Z,26.70
2022-08-10T02:12:07.565Z,26.70
2022-08-10T02:14:44.884Z,26.60
2022-08-10T02:17:59.563Z,26.60
2022-08-10T02:20:24.274Z,26.60
2022-08-10T02:23:08.538Z,26.70
2022-08-10T02:25:43.651Z,26.60
2022-08-10T02:28:27.003Z,26.60
2022-08-10T02:31:11.469Z,26.60
2022-08-10T02:33:57.516Z,26.60
2022-08-10T02:36:29.541Z,26.60
2022-08-10T02:39:02.162Z,26.60
2022-08-10T02:45:12.479Z,26.60
2022-08-10T02:45:20.367Z,26.60
2022-08-10T02:47:58.478Z,26.60
2022-08-10T02:50:33.850Z,26.50
2022-08-10T02:53:01.195Z,26.50
2022-08-10T02:56:14.610Z,26.50
2022-08-10T02:58:45.248Z,26.50
2022-08-10T03:01:17.349Z,26.40
2022-08-10T03:03:57.456Z,26.40
2022-08-10T03:06:30.548Z,26.40
2022-08-10T03:09:00.337Z,26.40
2022-08-10T03:12:36.535Z,26.30
2022-08-10T03:14:19.937Z,26.40
2022-08-10T03:16:49.096Z,26.30
2022-08-10T03:20:35.559Z,26.30
2022-08-10T03:22:05.945Z,26.30
2022-08-10T03:24:34.999Z,26.30
2022-08-10T03:27:04.242Z,26.30
2022-08-10T03:30:32.942Z,26.20
2022-08-10T03:32:20.695Z,26.20
2022-08-10T03:34:48.475Z,26.20
2022-08-10T03:37:16.044Z,26.20
2022-08-10T03:39:43.801Z,26.20
2022-08-10T03:42:15.652Z,26.30
2022-08-10T03:44:47.286Z,26.30
2022-08-10T03:47:19.304Z,26.30
2022-08-10T03:49:48.443Z,26.30
2022-08-10T03:52:17.060Z,26.30
2022-08-10T03:54:45.335Z,26.30
2022-08-10T03:57:16.170Z,26.30
2022-08-10T03:59:43.593Z,26.40
2022-08-10T04:02:44.342Z,26.30
2022-08-10T04:04:59.188Z,26.40
2022-08-10T04:07:27.168Z,26.40
2022-08-10T04:09:56.482Z,26.40
2022-08-10T04:12:26.287Z,26.30
2022-08-10T04:14:54.050Z,26.40
2022-08-10T04:18:03.362Z,26.40
2022-08-10T04:20:20.408Z,26.40
2022-08-10T04:22:52.130Z,26.40
2022-08-10T04:25:22.429Z,26.30
2022-08-10T04:27:53.836Z,26.30
2022-08-10T04:30:21.451Z,26.30
2022-08-10T04:32:53.772Z,26.30
2022-08-10T04:35:23.875Z,26.30
2022-08-10T04:37:52.118Z,26.30
2022-08-10T04:40:25.198Z,26.30
2022-08-10T04:43:12.422Z,26.30
2022-08-10T04:45:49.244Z,26.30
2022-08-10T04:48:43.270Z,26.30
2022-08-10T04:51:10.716Z,26.30
2022-08-10T04:54:05.857Z,26.40
2022-08-10T04:56:31.691Z,26.40
2022-08-10T04:59:00.599Z,26.30
2022-08-10T05:02:12.114Z,26.40
2022-08-10T05:04:36.150Z,26.40
2022-08-10T05:07:05.562Z,26.40
2022-08-10T05:09:32.933Z,26.50
2022-08-10T05:12:00.209Z,26.50
2022-08-10T05:14:32.751Z,26.50
2022-08-10T05:17:00.546Z,26.60
2022-08-10T05:20:02.314Z,26.60
2022-08-10T05:22:15.072Z,26.60
2022-08-10T05:24:45.086Z,26.60
2022-08-10T05:27:12.480Z,26.60
2022-08-10T05:29:39.733Z,26.60
2022-08-10T05:32:07.313Z,26.70
2022-08-10T05:34:34.644Z,26.60
2022-08-10T05:37:02.473Z,26.60
2022-08-10T05:39:31.898Z,26.60
2022-08-10T05:42:01.736Z,26.60
2022-08-10T05:44:29.798Z,26.60
2022-08-10T05:46:59.478Z,26.60
2022-08-10T05:49:26.764Z,26.70
2022-08-10T05:51:54.051Z,26.70
2022-08-10T05:54:21.438Z,26.70
2022-08-10T05:56:55.170Z,26.80
2022-08-10T06:00:33.006Z,26.90
2022-08-10T06:02:42.845Z,27.10
2022-08-10T06:05:23.572Z,27.40
2022-08-10T06:08:08.858Z,27.60
2022-08-10T06:12:23.856Z,27.70
2022-08-10T06:13:59.481Z,27.70
2022-08-10T06:16:37.716Z,27.60
2022-08-10T06:19:06.816Z,27.60
2022-08-10T06:21:34.886Z,27.60
2022-08-10T06:24:03.914Z,27.70
2022-08-10T06:26:31.337Z,27.80
2022-08-10T06:29:09.981Z,27.80
2022-08-10T06:31:47.610Z,28.00
2022-08-10T06:34:29.184Z,28.50
2022-08-10T06:36:58.961Z,28.90
2022-08-10T06:39:36.167Z,28.90
2022-08-10T06:42:14.722Z,29.00
2022-08-10T06:44:56.697Z,29.20
2022-08-10T06:47:31.267Z,29.50
2022-08-10T06:50:09.594Z,29.90
2022-08-10T06:52:38.535Z,30.00
2022-08-10T06:55:11.052Z,30.00
2022-08-10T06:57:40.352Z,30.00
2022-08-10T07:00:11.654Z,30.00
2022-08-10T07:02:51.687Z,30.20
2022-08-10T07:05:27.127Z,30.40
2022-08-10T07:08:00.641Z,30.80
2022-08-10T07:10:41.336Z,31.20
2022-08-10T07:14:16.287Z,31.00
2022-08-10T07:16:14.329Z,30.70
2022-08-10T07:21:39.715Z,30.80
2022-08-10T07:24:16.644Z,30.70
2022-08-10T07:26:50.547Z,30.60
2022-08-10T07:29:52.778Z,30.60
2022-08-10T07:32:09.466Z,30.60
2022-08-10T07:34:38.158Z,30.30
2022-08-10T07:37:11.450Z,30.30
2022-08-10T07:39:58.430Z,30.60
2022-08-10T07:42:32.437Z,30.70
2022-08-10T07:45:04.585Z,30.50
2022-08-10T07:47:52.870Z,30.50
2022-08-10T07:50:48.252Z,30.50
2022-08-10T07:53:26.177Z,30.90
2022-08-10T07:56:04.052Z,31.30
2022-08-10T07:58:46.346Z,31.50
2022-08-10T08:01:23.210Z,31.50
2022-08-10T08:04:05.897Z,31.60
2022-08-10T08:06:41.058Z,31.60
2022-08-10T08:09:18.980Z,31.10
2022-08-10T08:11:47.316Z,30.60
2022-08-10T08:14:16.683Z,30.50
2022-08-10T08:16:48.758Z,30.50
2022-08-10T08:19:32.844Z,30.50
2022-08-10T08:24:05.690Z,30.70
2022-08-10T08:24:56.954Z,31.00
2022-08-10T08:27:26.068Z,31.20
2022-08-10T08:29:54.363Z,31.00
2022-08-10T08:32:27.361Z,30.80
2022-08-10T08:35:02.457Z,30.70
2022-08-10T08:38:30.272Z,30.70
2022-08-10T08:40:26.295Z,30.80
2022-08-10T08:43:15.206Z,31.00
2022-08-10T08:46:15.697Z,30.90
2022-08-10T08:49:14.030Z,31.00
2022-08-10T08:52:32.349Z,30.90
2022-08-10T08:55:52.354Z,31.10
2022-08-10T08:58:36.540Z,31.50
2022-08-10T09:01:40.444Z,31.70
2022-08-10T09:05:04.672Z,31.70
2022-08-10T09:08:27.928Z,31.90
2022-08-10T09:11:24.257Z,32.30
2022-08-10T09:14:15.126Z,32.60
2022-08-10T09:16:46.876Z,31.90
2022-08-10T09:19:43.429Z,31.80
2022-08-10T09:22:40.716Z,31.80
2022-08-10T09:25:30.853Z,31.70
2022-08-10T09:28:07.750Z,31.70
2022-08-10T09:31:20.759Z,32.10
2022-08-10T09:36:21.070Z,31.70
2022-08-10T09:36:50.675Z,31.40
2022-08-10T09:40:08.481Z,31.60
2022-08-10T09:42:29.456Z,31.70
2022-08-10T09:45:09.877Z,31.80
2022-08-10T09:48:00.973Z,31.90
2022-08-10T09:51:34.936Z,32.00
2022-08-10T09:54:15.942Z,32.20
2022-08-10T09:56:52.048Z,31.80
2022-08-10T10:00:00.838Z,31.80
2022-08-10T10:02:36.267Z,32.20
2022-08-10T10:05:21.635Z,32.30
2022-08-10T10:07:57.670Z,32.70
2022-08-10T10:10:32.653Z,32.50
2022-08-10T10:13:48.996Z,32.50
2022-08-10T10:16:34.235Z,32.50
2022-08-10T10:19:18.072Z,32.50
2022-08-10T10:21:54.150Z,32.30
2022-08-10T10:24:45.891Z,32.50
2022-08-10T10:27:40.864Z,32.30
2022-08-10T10:30:10.841Z,32.20
2022-08-10T10:32:57.299Z,31.90
2022-08-10T10:35:34.640Z,32.00
2022-08-10T10:38:34.313Z,32.00
2022-08-10T10:41:20.578Z,32.20
2022-08-10T10:44:04.520Z,32.20
2022-08-10T10:46:31.816Z,32.10
2022-08-10T10:49:24.690Z,31.70
2022-08-10T10:52:02.983Z,31.60
2022-08-10T10:54:54.840Z,31.60
2022-08-10T10:58:00.333Z,31.70
2022-08-10T11:01:15.963Z,31.60
2022-08-10T11:04:01.173Z,31.60
2022-08-10T11:06:40.603Z,31.70
2022-08-10T11:10:03.440Z,31.90
2022-08-10T11:12:37.726Z,32.10
2022-08-10T11:15:35.046Z,32.00
2022-08-10T11:18:28.945Z,31.90
2022-08-10T11:21:30.409Z,31.70
2022-08-10T11:24:48.930Z,31.80
2022-08-10T11:27:50.291Z,31.90
2022-08-10T11:30:45.769Z,31.70
2022-08-10T11:33:32.748Z,31.70
2022-08-10T11:36:25.116Z,31.70
2022-08-10T11:39:19.148Z,32.00
2022-08-10T11:42:07.692Z,32.10
2022-08-10T11:44:39.984Z,32.20
2022-08-10T11:47:19.765Z,32.20
2022-08-10T11:50:06.084Z,32.10
2022-08-10T11:52:55.357Z,32.10
2022-08-10T11:55:25.631Z,32.10
2022-08-10T11:58:01.846Z,32.30
2022-08-10T12:00:36.435Z,32.40
2022-08-10T12:03:07.368Z,32.20
2022-08-10T12:05:52.733Z,32.00
2022-08-10T12:10:06.815Z,31.80
2022-08-10T12:11:23.928Z,31.80
2022-08-10T12:14:21.939Z,31.80
2022-08-10T12:17:05.262Z,31.90
2022-08-10T12:19:59.648Z,31.70
2022-08-10T12:22:55.454Z,31.70
2022-08-10T12:25:58.790Z,31.50
2022-08-10T12:28:51.075Z,31.60
2022-08-10T12:31:27.891Z,31.90
2022-08-10T12:34:29.089Z,31.90
2022-08-10T12:37:19.763Z,31.90
2022-08-10T12:39:46.952Z,31.80
2022-08-10T12:43:13.341Z,31.50
2022-08-10T12:45:34.581Z,31.30
2022-08-10T12:48:17.197Z,31.30
2022-08-10T12:50:49.456Z,31.30
2022-08-10T12:53:44.306Z,31.50
2022-08-10T12:56:19.304Z,31.70
2022-08-10T12:58:59.133Z,31.50
2022-08-10T13:02:07.956Z,31.20
2022-08-10T13:04:28.793Z,31.50
2022-08-10T13:07:00.272Z,31.70
2022-08-10T13:09:31.403Z,31.90
2022-08-10T13:12:38.824Z,32.10
2022-08-10T13:14:53.435Z,32.00
2022-08-10T13:17:38.859Z,32.00
2022-08-10T13:20:33.761Z,32.00
2022-08-10T13:23:05.620Z,32.00
2022-08-10T13:25:40.463Z,32.00
2022-08-10T13:28:35.363Z,32.10
2022-08-10T13:31:05.323Z,32.00
2022-08-10T13:34:39.143Z,31.90
2022-08-10T13:36:29.161Z,31.60
2022-08-10T13:38:58.260Z,31.60
2022-08-10T13:41:38.439Z,31.70
2022-08-10T13:44:08.069Z,31.90
2022-08-10T13:46:40.206Z,31.90
2022-08-10T13:49:09.486Z,31.90
2022-08-10T13:51:56.622Z,32.00
2022-08-10T13:54:35.417Z,32.00
2022-08-10T13:57:03.401Z,32.00
2022-08-10T14:00:34.003Z,32.00
2022-08-10T14:02:58.368Z,32.00
2022-08-10T14:05:30.716Z,32.00
2022-08-10T14:08:00.871Z,32.10
2022-08-10T14:11:09.252Z,32.00
2022-08-10T14:13:26.470Z,32.10
2022-08-10T14:15:56.303Z,32.10
2022-08-10T14:18:24.782Z,32.00
2022-08-10T14:20:54.428Z,32.00
2022-08-10T14:23:24.525Z,32.10
2022-08-10T14:25:56.416Z,32.20
2022-08-10T14:28:50.348Z,32.30
2022-08-10T14:31:22.442Z,32.00
2022-08-10T14:33:54.627Z,32.00
2022-08-10T14:36:31.281Z,32.10
2022-08-10T14:39:00.784Z,32.20
2022-08-10T14:42:01.748Z,32.30
2022-08-10T14:44:20.378Z,32.20
2022-08-10T14:46:57.499Z,32.00
2022-08-10T14:49:28.930Z,31.80
2022-08-10T14:52:18.494Z,31.80
2022-08-10T14:54:56.636Z,31.90
2022-08-10T14:58:19.100Z,31.90
2022-08-10T15:00:29.406Z,32.00
2022-08-10T15:03:02.349Z,32.10
2022-08-10T15:05:41.833Z,32.10
2022-08-10T15:08:11.370Z,32.00
2022-08-10T15:10:50.857Z,31.90
2022-08-10T15:13:34.581Z,31.90
2022-08-10T15:16:13.874Z,32.00
2022-08-10T15:18:58.297Z,32.00
2022-08-10T15:21:35.314Z,31.90
2022-08-10T15:24:15.088Z,32.10
2022-08-10T15:26:51.124Z,32.00
2022-08-10T15:29:26.050Z,31.90
2022-08-10T15:32:12.505Z,31.90
2022-08-10T15:35:01.290Z,32.00
2022-08-10T15:37:39.687Z,32.00
2022-08-10T15:40:26.041Z,31.90
2022-08-10T15:43:27.352Z,31.80
2022-08-10T15:46:11.834Z,31.80
2022-08-10T15:48:56.423Z,31.90
2022-08-10T15:51:53.986Z,31.90
2022-08-10T15:54:33.609Z,31.90
2022-08-10T15:57:06.712Z,31.90
2022-08-10T15:59:47.337Z,31.80
2022-08-10T16:02:24.810Z,31.90
2022-08-10T16:04:59.557Z,31.90
2022-08-10T16:07:46.013Z,31.90
2022-08-10T16:10:25.606Z,31.80
2022-08-10T16:13:01.191Z,31.70
2022-08-10T16:15:30.544Z,31.70
2022-08-10T16:18:03.235Z,31.60
2022-08-10T16:20:52.373Z,31.70
2022-08-10T16:23:29.451Z,31.80
2022-08-10T16:26:05.085Z,31.80
2022-08-10T16:28:47.989Z,31.80
2022-08-10T16:31:20.670Z,31.80
2022-08-10T16:33:59.150Z,31.70
2022-08-10T16:36:41.494Z,31.70
2022-08-10T16:39:15.841Z,31.60
2022-08-10T16:42:03.910Z,31.60
2022-08-10T16:45:04.971Z,31.50
2022-08-10T16:47:36.101Z,31.50
2022-08-10T16:50:09.270Z,31.40
2022-08-10T16:52:38.236Z,31.30
2022-08-10T16:55:24.360Z,31.20
2022-08-10T16:58:07.848Z,31.30
2022-08-10T17:00:36.133Z,31.20
2022-08-10T17:03:22.629Z,31.20
2022-08-10T17:06:10.077Z,31.30
2022-08-10T17:08:48.119Z,31.20
2022-08-10T17:11:18.427Z,31.10
2022-08-10T17:13:46.094Z,31.00
2022-08-10T17:16:17.036Z,31.00
2022-08-10T17:18:46.689Z,31.00
2022-08-10T17:21:20.594Z,31.00
2022-08-10T17:23:55.309Z,31.00
2022-08-10T17:26:35.904Z,30.90
2022-08-10T17:29:53.627Z,30.90
2022-08-10T17:32:19.504Z,30.90
2022-08-10T17:34:51.720Z,30.80
2022-08-10T17:37:22.057Z,30.80
2022-08-10T17:39:56.349Z,30.80
2022-08-10T17:42:26.875Z,30.70
2022-08-10T17:44:55.320Z,30.60
2022-08-10T17:47:27.253Z,30.50
2022-08-10T17:49:57.044Z,30.50
2022-08-10T17:52:30.446Z,30.40
2022-08-10T17:55:02.832Z,30.40
2022-08-10T17:57:37.688Z,30.40
2022-08-10T18:00:13.431Z,30.40
2022-08-10T18:02:46.083Z,30.30
2022-08-10T18:05:14.780Z,30.30
2022-08-10T18:07:52.844Z,30.20
2022-08-10T18:10:22.208Z,30.20
2022-08-10T18:12:53.819Z,30.10
2022-08-10T18:15:25.767Z,30.10
2022-08-10T18:18:00.377Z,30.10
2022-08-10T18:20:35.844Z,30.00
2022-08-10T18:23:04.989Z,29.90
2022-08-10T18:25:37.416Z,29.90
2022-08-10T18:28:10.585Z,29.80
2022-08-10T18:30:48.782Z,29.80
2022-08-10T18:33:20.630Z,29.80
2022-08-10T18:35:49.618Z,29.80
2022-08-10T18:38:18.657Z,29.70
2022-08-10T18:40:53.091Z,29.70
2022-08-10T18:44:07.023Z,29.70
2022-08-10T18:46:23.326Z,29.60
2022-08-10T18:49:02.536Z,29.50
2022-08-10T18:51:38.339Z,29.50
2022-08-10T18:54:39.489Z,29.40
2022-08-10T18:57:36.092Z,29.30
2022-08-10T19:00:13.329Z,29.30
2022-08-10T19:02:58.661Z,29.20
2022-08-10T19:06:09.894Z,29.20
2022-08-10T19:08:49.356Z,29.20
2022-08-10T19:11:32.333Z,29.10
2022-08-10T19:14:16.319Z,29.10
2022-08-10T19:17:10.253Z,29.00
2022-08-10T19:19:56.194Z,29.00
2022-08-10T19:22:28.159Z,29.00
2022-08-10T19:25:09.165Z,29.00
2022-08-10T19:28:10.320Z,28.90
2022-08-10T19:30:49.344Z,28.90
2022-08-10T19:33:23.319Z,28.90
2022-08-10T19:36:18.663Z,28.80
2022-08-10T19:39:50.922Z,28.80
2022-08-10T19:42:20.546Z,28.70
2022-08-10T19:45:12.546Z,28.70
2022-08-10T19:48:18.458Z,28.60
2022-08-10T19:50:57.794Z,28.60
2022-08-10T19:53:59.289Z,28.50
2022-08-10T19:56:52.564Z,28.50
2022-08-10T20:00:16.647Z,28.40
2022-08-10T20:03:02.908Z,28.40
2022-08-10T20:06:13.002Z,28.20
2022-08-10T20:09:02.320Z,28.10
2022-08-10T20:11:47.110Z,28.00
2022-08-10T20:14:49.589Z,27.80
2022-08-10T20:17:51.168Z,27.50
2022-08-10T20:20:56.910Z,27.40
2022-08-10T20:23:55.652Z,27.40
2022-08-10T20:26:35.613Z,27.40
2022-08-10T20:29:16.390Z,27.20
2022-08-10T20:32:11.102Z,27.20
2022-08-10T20:35:15.387Z,27.20
2022-08-10T20:38:03.531Z,27.10
2022-08-10T20:40:55.088Z,27.20
2022-08-10T20:43:45.868Z,27.20
2022-08-10T20:46:35.510Z,27.20
2022-08-10T20:49:29.802Z,27.20
2022-08-10T20:52:02.865Z,27.20
2022-08-10T20:54:38.095Z,27.30
2022-08-10T20:57:56.685Z,27.20
2022-08-10T21:00:10.828Z,27.20
2022-08-10T21:03:21.246Z,27.30
2022-08-10T21:06:56.334Z,27.30
2022-08-10T21:10:01.353Z,27.20
2022-08-10T21:12:43.734Z,27.20
2022-08-10T21:15:41.857Z,27.20
2022-08-10T21:22:02.889Z,27.30
2022-08-10T21:24:38.399Z,27.20
2022-08-10T21:27:37.234Z,27.10
2022-08-10T21:30:26.227Z,27.10
2022-08-10T21:32:59.511Z,27.10
2022-08-10T21:35:47.367Z,27.10
2022-08-10T21:38:34.843Z,27.20
2022-08-10T21:41:57.464Z,27.20
2022-08-10T21:48:40.409Z,27.30
2022-08-10T21:52:01.126Z,27.40
2022-08-10T21:55:16.703Z,27.50
2022-08-10T21:58:15.176Z,27.70
2022-08-10T22:01:10.461Z,27.80
2022-08-10T22:03:59.975Z,27.80
2022-08-10T22:06:52.584Z,27.80
2022-08-10T22:09:46.994Z,27.90
2022-08-10T22:12:36.184Z,27.90
2022-08-10T22:15:42.574Z,27.90
2022-08-10T22:19:01.388Z,27.80
2022-08-10T22:22:27.054Z,27.80
2022-08-10T22:25:33.620Z,27.80
2022-08-10T22:28:19.563Z,27.70
2022-08-10T22:31:24.473Z,27.20
2022-08-10T22:31:30.710Z,27.70
2022-08-10T22:34:38.308Z,27.70
2022-08-10T22:37:43.805Z,27.50
2022-08-10T22:40:38.916Z,27.40
2022-08-10T22:43:33.541Z,27.20
2022-08-10T22:46:34.196Z,27.20
2022-08-10T22:49:01.954Z,27.20
2022-08-10T22:51:51.129Z,27.10
2022-08-10T22:54:51.309Z,27.00
2022-08-10T22:57:37.870Z,27.00
2022-08-10T23:00:15.970Z,26.90
2022-08-10T23:02:59.920Z,26.80
2022-08-10T23:05:40.533Z,26.70
2022-08-10T23:08:29.842Z,26.80
2022-08-10T23:11:04.783Z,26.70
2022-08-10T23:13:36.870Z,26.60
2022-08-10T23:16:28.273Z,26.60
2022-08-10T23:19:18.589Z,26.50
2022-08-10T23:22:07.321Z,26.40
2022-08-10T23:25:03.102Z,26.40
2022-08-10T23:27:39.014Z,26.30
2022-08-10T23:30:17.620Z,26.30
2022-08-10T23:32:51.991Z,26.20
2022-08-10T23:36:30.311Z,26.10
2022-08-10T23:38:25.071Z,26.00
2022-08-10T23:40:54.618Z,25.90
2022-08-10T23:43:46.694Z,26.00
2022-08-10T23:46:17.489Z,25.90
2022-08-10T23:48:46.966Z,25.90
2022-08-10T23:51:17.218Z,25.90
2022-08-10T23:53:47.865Z,25.90
2022-08-10T23:56:24.863Z,25.90
2022-08-10T23:58:56.928Z,25.80
